Aviation Digital Data Service (ADDS)

Output produced by METARs form (1803 UTC 19 October 2017)
found at http://www.aviationweather.gov/adds/metars/
 
MPPA 191600Z 22006KT 9999 FEW016 SCT070 BKN300 Q1010
TAF MPPA 191700Z 1918/2024 34005KT 9999 SCT018 SCT100 
     TEMPO 1918/1921 19005KT 
     PROB30 
     TEMPO 1921/1924 19010KT 7000 -TSRA SCT015CB BKN100 
     PROB40 
     TEMPO 2005/2009 7000 -RA SCT016CB BKN100 
     PROB40 
     TEMPO 2018/2022 5000 TSRA SCT014CB BKN080
       
MPBO 191800Z 00000KT 9999 SCT016 SCT090 Q1011
MPDA 191800 18004KT 9999 SCT015 30/25 Q1009
TAF COR MPDA 191700Z 1918/2006 18006KT 9999 SCT018 SCT100 
     PROB30 
     TEMPO 1921/2001 18010KT 6000 -TSRA SCT015CB BKN100 
     BECMG 2001/2005 00000KT
       
MPMG 191700Z 16005KT 9000 SCT018TCU 30/26 Q1009 NOSIG
TAF MPMG 191700Z 1918/2006 31005KT 9999 SCT018 SCT100 
     TEMPO 1918/1921 18005KT 
     PROB30 
     TEMPO 1921/1924 18010KT 7000 -TSRA SCT015CB BKN100
       
MPTO 191800Z 18007KT 9000 SCT016TCU 31/26 Q1010 NOSIG
TAF MPTO 191700Z 1918/2024 30005KT 9999 SCT018 SCT100 
     TEMPO 1918/1921 18005KT 
     PROB30 
     TEMPO 1921/1924 18010KT 7000 -TSRA SCT015CB BKN100 
     PROB40 
     TEMPO 2005/2009 7000 -RA SCT016CB BKN100 
     PROB40 
     TEMPO 2018/2022 5000 TSRA SCT014CB BKN080